Aarschot, Belgium
Current Conditions -  °F | °C
As of 12:20 AM on Friday 19 Dec 2014 (Local Time) from EBBR Reporting Station
Moderate Rain Moderate Rain  
Wind Chill: 52°   Ceiling: 1100
Heat Index: 52°   Visibility: 3mi
Dew Point: 50°   Wind: 22mph
Humidity: 94%   Direction: 240°WSW
Pressure: 29.94"   Gusts: NA
Location:  50.99°N, 4.84°E
Report Text: EBBR 182320Z 24019KT 5000 RA FEW008 BKN011 11/10 Q1014 TEMPO 4000 RA
Loading
Personal Weather Stations






























Interactive Weather Map New forecast layout! Learn more

10-Day Weather Forecast

Advertisements
Track Severe Weather on mobile